sensor_id;sensor_type;location;lat;lon;timestamp;pressure;altitude;pressure_sealevel;temperature
24201;BMP280;2801;50.972;7.856;2023-04-03T00:01:09;98667.38;;;1.75
24201;BMP280;2801;50.972;7.856;2023-04-03T00:03:36;98662.44;;;1.78
24201;BMP280;2801;50.972;7.856;2023-04-03T00:06:05;98665.84;;;1.79
24201;BMP280;2801;50.972;7.856;2023-04-03T00:08:38;98660.69;;;1.84
24201;BMP280;2801;50.972;7.856;2023-04-03T00:11:05;98673.16;;;1.88
24201;BMP280;2801;50.972;7.856;2023-04-03T00:13:34;98667.34;;;1.86
24201;BMP280;2801;50.972;7.856;2023-04-03T00:16:02;98662.97;;;1.80
24201;BMP280;2801;50.972;7.856;2023-04-03T00:18:30;98666.19;;;1.82
24201;BMP280;2801;50.972;7.856;2023-04-03T00:20:57;98666.53;;;1.86
24201;BMP280;2801;50.972;7.856;2023-04-03T00:23:24;98669.50;;;1.89
24201;BMP280;2801;50.972;7.856;2023-04-03T00:25:51;98663.16;;;1.90
24201;BMP280;2801;50.972;7.856;2023-04-03T00:28:18;98669.03;;;1.92
24201;BMP280;2801;50.972;7.856;2023-04-03T00:30:49;98675.91;;;1.93
24201;BMP280;2801;50.972;7.856;2023-04-03T00:33:16;98676.97;;;1.92
24201;BMP280;2801;50.972;7.856;2023-04-03T00:35:43;98667.41;;;1.91
24201;BMP280;2801;50.972;7.856;2023-04-03T00:38:10;98673.75;;;1.90
24201;BMP280;2801;50.972;7.856;2023-04-03T00:40:43;98663.41;;;1.89
24201;BMP280;2801;50.972;7.856;2023-04-03T00:43:23;98659.41;;;1.86
24201;BMP280;2801;50.972;7.856;2023-04-03T00:45:56;98664.59;;;1.81
24201;BMP280;2801;50.972;7.856;2023-04-03T00:48:35;98664.72;;;1.75
24201;BMP280;2801;50.972;7.856;2023-04-03T00:51:09;98670.16;;;1.68
24201;BMP280;2801;50.972;7.856;2023-04-03T00:53:55;98669.56;;;1.50
24201;BMP280;2801;50.972;7.856;2023-04-03T00:56:27;98668.44;;;1.46
24201;BMP280;2801;50.972;7.856;2023-04-03T00:59:00;98678.44;;;1.44
24201;BMP280;2801;50.972;7.856;2023-04-03T01:01:28;98654.81;;;1.26
24201;BMP280;2801;50.972;7.856;2023-04-03T01:03:59;98668.38;;;1.29
24201;BMP280;2801;50.972;7.856;2023-04-03T01:06:32;98671.81;;;1.30
24201;BMP280;2801;50.972;7.856;2023-04-03T01:09:01;98672.84;;;1.29
24201;BMP280;2801;50.972;7.856;2023-04-03T01:11:28;98670.56;;;1.32
24201;BMP280;2801;50.972;7.856;2023-04-03T01:13:55;98669.75;;;1.32
24201;BMP280;2801;50.972;7.856;2023-04-03T01:16:22;98676.47;;;1.39
24201;BMP280;2801;50.972;7.856;2023-04-03T01:18:49;98669.13;;;1.41
24201;BMP280;2801;50.972;7.856;2023-04-03T01:21:42;98676.00;;;1.42
24201;BMP280;2801;50.972;7.856;2023-04-03T01:24:36;98666.81;;;1.45
24201;BMP280;2801;50.972;7.856;2023-04-03T01:27:09;98672.44;;;1.48
24201;BMP280;2801;50.972;7.856;2023-04-03T01:29:37;98669.81;;;1.48
24201;BMP280;2801;50.972;7.856;2023-04-03T01:32:04;98671.41;;;1.49
24201;BMP280;2801;50.972;7.856;2023-04-03T01:34:32;98674.63;;;1.51
24201;BMP280;2801;50.972;7.856;2023-04-03T01:36:59;98671.75;;;1.53
24201;BMP280;2801;50.972;7.856;2023-04-03T01:39:26;98671.47;;;1.54
24201;BMP280;2801;50.972;7.856;2023-04-03T01:41:53;98670.34;;;1.50
24201;BMP280;2801;50.972;7.856;2023-04-03T01:44:20;98669.56;;;1.50
24201;BMP280;2801;50.972;7.856;2023-04-03T01:46:47;98675.56;;;1.45
24201;BMP280;2801;50.972;7.856;2023-04-03T01:49:14;98659.25;;;1.37
24201;BMP280;2801;50.972;7.856;2023-04-03T01:51:41;98667.41;;;1.35
24201;BMP280;2801;50.972;7.856;2023-04-03T01:54:08;98668.16;;;1.31
24201;BMP280;2801;50.972;7.856;2023-04-03T01:56:35;98665.97;;;1.28
24201;BMP280;2801;50.972;7.856;2023-04-03T01:59:02;98675.72;;;1.27
24201;BMP280;2801;50.972;7.856;2023-04-03T02:01:29;98668.25;;;1.24
24201;BMP280;2801;50.972;7.856;2023-04-03T02:03:56;98678.50;;;1.21
24201;BMP280;2801;50.972;7.856;2023-04-03T02:06:23;98670.25;;;1.17
24201;BMP280;2801;50.972;7.856;2023-04-03T02:08:50;98676.47;;;1.11
24201;BMP280;2801;50.972;7.856;2023-04-03T02:11:16;98677.38;;;1.05
24201;BMP280;2801;50.972;7.856;2023-04-03T02:13:43;98670.03;;;0.96
24201;BMP280;2801;50.972;7.856;2023-04-03T02:16:11;98673.31;;;0.75
24201;BMP280;2801;50.972;7.856;2023-04-03T02:18:39;98670.31;;;0.60
24201;BMP280;2801;50.972;7.856;2023-04-03T02:21:06;98672.81;;;0.55
24201;BMP280;2801;50.972;7.856;2023-04-03T02:23:34;98676.41;;;0.49
24201;BMP280;2801;50.972;7.856;2023-04-03T02:26:12;98678.25;;;0.37
24201;BMP280;2801;50.972;7.856;2023-04-03T02:28:40;98674.78;;;0.36
24201;BMP280;2801;50.972;7.856;2023-04-03T02:31:09;98682.81;;;0.30
24201;BMP280;2801;50.972;7.856;2023-04-03T02:33:37;98677.16;;;0.26
24201;BMP280;2801;50.972;7.856;2023-04-03T02:36:06;98682.94;;;0.23
24201;BMP280;2801;50.972;7.856;2023-04-03T02:38:34;98686.00;;;0.20
24201;BMP280;2801;50.972;7.856;2023-04-03T02:41:04;98685.66;;;0.17
24201;BMP280;2801;50.972;7.856;2023-04-03T02:43:33;98685.41;;;0.18
24201;BMP280;2801;50.972;7.856;2023-04-03T02:45:59;98686.47;;;0.17
24201;BMP280;2801;50.972;7.856;2023-04-03T02:48:27;98689.09;;;0.17
24201;BMP280;2801;50.972;7.856;2023-04-03T02:50:54;98685.88;;;0.15
24201;BMP280;2801;50.972;7.856;2023-04-03T02:53:22;98685.28;;;0.01
24201;BMP280;2801;50.972;7.856;2023-04-03T02:55:49;98688.81;;;-0.05
24201;BMP280;2801;50.972;7.856;2023-04-03T02:58:16;98686.97;;;-0.04
24201;BMP280;2801;50.972;7.856;2023-04-03T03:00:43;98687.66;;;-0.09
24201;BMP280;2801;50.972;7.856;2023-04-03T03:03:10;98690.97;;;-0.13
24201;BMP280;2801;50.972;7.856;2023-04-03T03:05:37;98701.50;;;-0.13
24201;BMP280;2801;50.972;7.856;2023-04-03T03:08:04;98692.78;;;-0.14
24201;BMP280;2801;50.972;7.856;2023-04-03T03:10:31;98698.22;;;-0.09
24201;BMP280;2801;50.972;7.856;2023-04-03T03:12:58;98695.81;;;-0.10
24201;BMP280;2801;50.972;7.856;2023-04-03T03:15:24;98698.66;;;-0.12
24201;BMP280;2801;50.972;7.856;2023-04-03T03:17:51;98692.00;;;-0.14
24201;BMP280;2801;50.972;7.856;2023-04-03T03:20:18;98685.44;;;-0.23
24201;BMP280;2801;50.972;7.856;2023-04-03T03:22:45;98702.41;;;-0.19
24201;BMP280;2801;50.972;7.856;2023-04-03T03:25:12;98702.66;;;-0.21
24201;BMP280;2801;50.972;7.856;2023-04-03T03:27:40;98704.09;;;-0.25
24201;BMP280;2801;50.972;7.856;2023-04-03T03:30:07;98711.66;;;-0.28
24201;BMP280;2801;50.972;7.856;2023-04-03T03:32:34;98705.00;;;-0.31
24201;BMP280;2801;50.972;7.856;2023-04-03T03:35:02;98707.66;;;-0.31
24201;BMP280;2801;50.972;7.856;2023-04-03T03:37:29;98708.91;;;-0.33
24201;BMP280;2801;50.972;7.856;2023-04-03T03:39:56;98706.72;;;-0.36
24201;BMP280;2801;50.972;7.856;2023-04-03T03:42:23;98700.50;;;-0.42
24201;BMP280;2801;50.972;7.856;2023-04-03T03:44:50;98703.78;;;-0.46
24201;BMP280;2801;50.972;7.856;2023-04-03T03:47:18;98710.31;;;-0.49
24201;BMP280;2801;50.972;7.856;2023-04-03T03:49:45;98705.84;;;-0.48
24201;BMP280;2801;50.972;7.856;2023-04-03T03:52:12;98710.97;;;-0.53
24201;BMP280;2801;50.972;7.856;2023-04-03T03:54:39;98713.25;;;-0.57
24201;BMP280;2801;50.972;7.856;2023-04-03T03:57:06;98710.03;;;-0.59
24201;BMP280;2801;50.972;7.856;2023-04-03T03:59:33;98719.66;;;-0.64
24201;BMP280;2801;50.972;7.856;2023-04-03T04:02:00;98704.63;;;-0.64
24201;BMP280;2801;50.972;7.856;2023-04-03T04:04:27;98719.88;;;-0.66
24201;BMP280;2801;50.972;7.856;2023-04-03T04:06:55;98716.28;;;-0.71
24201;BMP280;2801;50.972;7.856;2023-04-03T04:09:21;98718.75;;;-0.76
24201;BMP280;2801;50.972;7.856;2023-04-03T04:11:48;98719.88;;;-0.84
24201;BMP280;2801;50.972;7.856;2023-04-03T04:14:15;98726.38;;;-0.86
24201;BMP280;2801;50.972;7.856;2023-04-03T04:16:42;98714.22;;;-0.87
24201;BMP280;2801;50.972;7.856;2023-04-03T04:19:09;98718.69;;;-0.88
24201;BMP280;2801;50.972;7.856;2023-04-03T04:21:36;98718.91;;;-0.89
24201;BMP280;2801;50.972;7.856;2023-04-03T04:24:03;98725.03;;;-0.95
24201;BMP280;2801;50.972;7.856;2023-04-03T04:26:31;98721.25;;;-0.99
24201;BMP280;2801;50.972;7.856;2023-04-03T04:28:57;98719.78;;;-0.95
24201;BMP280;2801;50.972;7.856;2023-04-03T04:31:24;98714.72;;;-0.97
24201;BMP280;2801;50.972;7.856;2023-04-03T04:33:52;98717.56;;;-0.98
24201;BMP280;2801;50.972;7.856;2023-04-03T04:36:19;98714.09;;;-0.92
24201;BMP280;2801;50.972;7.856;2023-04-03T04:38:47;98711.44;;;-0.92
24201;BMP280;2801;50.972;7.856;2023-04-03T04:41:14;98713.03;;;-0.91
24201;BMP280;2801;50.972;7.856;2023-04-03T04:43:41;98709.41;;;-0.90
24201;BMP280;2801;50.972;7.856;2023-04-03T04:46:10;98709.63;;;-0.92
24201;BMP280;2801;50.972;7.856;2023-04-03T04:48:38;98710.19;;;-0.90
24201;BMP280;2801;50.972;7.856;2023-04-03T04:51:05;98711.00;;;-0.89
24201;BMP280;2801;50.972;7.856;2023-04-03T04:53:33;98715.03;;;-0.87
24201;BMP280;2801;50.972;7.856;2023-04-03T04:56:00;98711.97;;;-0.84
24201;BMP280;2801;50.972;7.856;2023-04-03T04:58:27;98722.28;;;-0.82
24201;BMP280;2801;50.972;7.856;2023-04-03T05:01:05;98723.75;;;-0.86
24201;BMP280;2801;50.972;7.856;2023-04-03T05:03:33;98733.25;;;-0.85
24201;BMP280;2801;50.972;7.856;2023-04-03T05:06:00;98730.00;;;-0.87
24201;BMP280;2801;50.972;7.856;2023-04-03T05:08:27;98734.50;;;-0.88
24201;BMP280;2801;50.972;7.856;2023-04-03T05:10:54;98731.25;;;-0.90
24201;BMP280;2801;50.972;7.856;2023-04-03T05:13:22;98739.38;;;-0.91
24201;BMP280;2801;50.972;7.856;2023-04-03T05:15:49;98738.00;;;-0.94
24201;BMP280;2801;50.972;7.856;2023-04-03T05:18:16;98743.25;;;-0.94
24201;BMP280;2801;50.972;7.856;2023-04-03T05:20:42;98745.75;;;-0.81
24201;BMP280;2801;50.972;7.856;2023-04-03T05:23:11;98743.84;;;-0.56
24201;BMP280;2801;50.972;7.856;2023-04-03T05:25:38;98743.78;;;-0.20
24201;BMP280;2801;50.972;7.856;2023-04-03T05:28:06;98742.66;;;0.18
24201;BMP280;2801;50.972;7.856;2023-04-03T05:30:33;98743.53;;;0.53
24201;BMP280;2801;50.972;7.856;2023-04-03T05:33:00;98740.69;;;0.89
24201;BMP280;2801;50.972;7.856;2023-04-03T05:35:27;98745.78;;;1.30
24201;BMP280;2801;50.972;7.856;2023-04-03T05:37:55;98744.28;;;1.73
24201;BMP280;2801;50.972;7.856;2023-04-03T05:40:22;98747.06;;;2.23
24201;BMP280;2801;50.972;7.856;2023-04-03T05:42:49;98742.28;;;2.69
24201;BMP280;2801;50.972;7.856;2023-04-03T05:45:16;98745.47;;;3.26
24201;BMP280;2801;50.972;7.856;2023-04-03T05:47:43;98751.97;;;3.78
24201;BMP280;2801;50.972;7.856;2023-04-03T05:50:10;98749.91;;;4.33
24201;BMP280;2801;50.972;7.856;2023-04-03T05:52:41;98748.22;;;4.85
24201;BMP280;2801;50.972;7.856;2023-04-03T05:55:09;98735.47;;;5.34
24201;BMP280;2801;50.972;7.856;2023-04-03T05:57:36;98749.31;;;5.87
24201;BMP280;2801;50.972;7.856;2023-04-03T06:00:08;98746.50;;;6.44
24201;BMP280;2801;50.972;7.856;2023-04-03T06:02:36;98745.94;;;7.12
24201;BMP280;2801;50.972;7.856;2023-04-03T06:05:04;98734.03;;;7.73
24201;BMP280;2801;50.972;7.856;2023-04-03T06:07:31;98741.75;;;8.33
24201;BMP280;2801;50.972;7.856;2023-04-03T06:09:58;98742.72;;;8.81
24201;BMP280;2801;50.972;7.856;2023-04-03T06:12:25;98734.78;;;8.99
24201;BMP280;2801;50.972;7.856;2023-04-03T06:14:52;98738.94;;;9.39
24201;BMP280;2801;50.972;7.856;2023-04-03T06:17:19;98727.13;;;9.87
24201;BMP280;2801;50.972;7.856;2023-04-03T06:19:46;98735.00;;;10.20
24201;BMP280;2801;50.972;7.856;2023-04-03T06:22:14;98731.88;;;10.32
24201;BMP280;2801;50.972;7.856;2023-04-03T06:24:41;98736.34;;;10.36
24201;BMP280;2801;50.972;7.856;2023-04-03T06:27:10;98733.81;;;10.45
24201;BMP280;2801;50.972;7.856;2023-04-03T06:29:38;98732.16;;;10.67
24201;BMP280;2801;50.972;7.856;2023-04-03T06:32:05;98740.91;;;10.73
24201;BMP280;2801;50.972;7.856;2023-04-03T06:34:32;98739.53;;;10.75
24201;BMP280;2801;50.972;7.856;2023-04-03T06:36:59;98742.56;;;11.01
24201;BMP280;2801;50.972;7.856;2023-04-03T06:39:26;98739.53;;;11.21
24201;BMP280;2801;50.972;7.856;2023-04-03T06:41:54;98742.53;;;10.87
24201;BMP280;2801;50.972;7.856;2023-04-03T06:44:21;98745.56;;;10.67
24201;BMP280;2801;50.972;7.856;2023-04-03T06:46:48;98742.66;;;10.64
24201;BMP280;2801;50.972;7.856;2023-04-03T06:49:15;98746.50;;;10.90
24201;BMP280;2801;50.972;7.856;2023-04-03T06:51:42;98749.22;;;11.03
24201;BMP280;2801;50.972;7.856;2023-04-03T06:54:09;98751.19;;;11.30
24201;BMP280;2801;50.972;7.856;2023-04-03T06:56:36;98759.81;;;11.13
24201;BMP280;2801;50.972;7.856;2023-04-03T06:59:03;98763.97;;;11.19
24201;BMP280;2801;50.972;7.856;2023-04-03T07:01:30;98771.03;;;11.61
24201;BMP280;2801;50.972;7.856;2023-04-03T07:03:58;98763.38;;;11.95
24201;BMP280;2801;50.972;7.856;2023-04-03T07:06:25;98760.25;;;12.51
24201;BMP280;2801;50.972;7.856;2023-04-03T07:08:55;98764.56;;;12.96
24201;BMP280;2801;50.972;7.856;2023-04-03T07:11:22;98759.16;;;13.40
24201;BMP280;2801;50.972;7.856;2023-04-03T07:13:49;98769.63;;;13.41
24201;BMP280;2801;50.972;7.856;2023-04-03T07:16:17;98768.72;;;13.54
24201;BMP280;2801;50.972;7.856;2023-04-03T07:18:44;98767.69;;;13.72
24201;BMP280;2801;50.972;7.856;2023-04-03T07:21:13;98764.41;;;13.45
24201;BMP280;2801;50.972;7.856;2023-04-03T07:23:39;98768.16;;;13.05
24201;BMP280;2801;50.972;7.856;2023-04-03T07:26:07;98768.91;;;12.83
24201;BMP280;2801;50.972;7.856;2023-04-03T07:28:35;98774.50;;;12.87
24201;BMP280;2801;50.972;7.856;2023-04-03T07:31:06;98769.34;;;12.41
24201;BMP280;2801;50.972;7.856;2023-04-03T07:33:36;98777.69;;;12.04
24201;BMP280;2801;50.972;7.856;2023-04-03T07:36:05;98777.56;;;11.55
24201;BMP280;2801;50.972;7.856;2023-04-03T07:38:35;98783.31;;;11.35
24201;BMP280;2801;50.972;7.856;2023-04-03T07:41:03;98784.09;;;11.22
24201;BMP280;2801;50.972;7.856;2023-04-03T07:43:30;98782.16;;;11.09
24201;BMP280;2801;50.972;7.856;2023-04-03T07:45:58;98787.50;;;11.09
24201;BMP280;2801;50.972;7.856;2023-04-03T07:48:26;98789.81;;;11.15
24201;BMP280;2801;50.972;7.856;2023-04-03T07:51:00;98790.63;;;11.16
24201;BMP280;2801;50.972;7.856;2023-04-03T07:53:28;98793.91;;;11.26
24201;BMP280;2801;50.972;7.856;2023-04-03T07:55:57;98786.03;;;11.03
24201;BMP280;2801;50.972;7.856;2023-04-03T07:58:25;98793.47;;;10.74
24201;BMP280;2801;50.972;7.856;2023-04-03T08:00:52;98790.63;;;10.65
24201;BMP280;2801;50.972;7.856;2023-04-03T08:03:19;98787.81;;;10.75
24201;BMP280;2801;50.972;7.856;2023-04-03T08:05:48;98791.22;;;10.81
24201;BMP280;2801;50.972;7.856;2023-04-03T08:08:21;98781.25;;;10.81
24201;BMP280;2801;50.972;7.856;2023-04-03T08:10:51;98784.03;;;10.76
24201;BMP280;2801;50.972;7.856;2023-04-03T08:13:19;98792.78;;;10.82
24201;BMP280;2801;50.972;7.856;2023-04-03T08:15:46;98788.28;;;10.96
24201;BMP280;2801;50.972;7.856;2023-04-03T08:18:17;98789.31;;;10.81
24201;BMP280;2801;50.972;7.856;2023-04-03T08:20:45;98794.38;;;10.83
24201;BMP280;2801;50.972;7.856;2023-04-03T08:23:12;98792.69;;;10.87
24201;BMP280;2801;50.972;7.856;2023-04-03T08:25:43;98795.28;;;10.78
24201;BMP280;2801;50.972;7.856;2023-04-03T08:28:12;98793.31;;;10.65
24201;BMP280;2801;50.972;7.856;2023-04-03T08:30:41;98806.44;;;10.48
24201;BMP280;2801;50.972;7.856;2023-04-03T08:33:10;98789.31;;;10.26
24201;BMP280;2801;50.972;7.856;2023-04-03T08:35:41;98800.84;;;10.26
24201;BMP280;2801;50.972;7.856;2023-04-03T08:38:10;98786.00;;;10.52
24201;BMP280;2801;50.972;7.856;2023-04-03T08:40:38;98793.59;;;10.82
24201;BMP280;2801;50.972;7.856;2023-04-03T08:45:52;98802.69;;;11.32
24201;BMP280;2801;50.972;7.856;2023-04-03T08:48:27;98791.16;;;11.32
24201;BMP280;2801;50.972;7.856;2023-04-03T08:51:02;98807.88;;;11.10
24201;BMP280;2801;50.972;7.856;2023-04-03T08:53:44;98798.22;;;11.27
24201;BMP280;2801;50.972;7.856;2023-04-03T08:56:15;98792.66;;;11.38
24201;BMP280;2801;50.972;7.856;2023-04-03T08:58:58;98803.28;;;11.29
24201;BMP280;2801;50.972;7.856;2023-04-03T09:01:35;98806.00;;;11.10
24201;BMP280;2801;50.972;7.856;2023-04-03T09:04:14;98806.00;;;10.78
24201;BMP280;2801;50.972;7.856;2023-04-03T09:06:54;98802.44;;;10.83
24201;BMP280;2801;50.972;7.856;2023-04-03T09:09:35;98805.06;;;10.88
24201;BMP280;2801;50.972;7.856;2023-04-03T09:12:25;98800.59;;;10.97
24201;BMP280;2801;50.972;7.856;2023-04-03T09:15:10;98798.94;;;11.01
24201;BMP280;2801;50.972;7.856;2023-04-03T09:18:08;98806.91;;;11.19
24201;BMP280;2801;50.972;7.856;2023-04-03T09:23:29;98804.34;;;11.14
24201;BMP280;2801;50.972;7.856;2023-04-03T09:26:11;98807.97;;;11.23
24201;BMP280;2801;50.972;7.856;2023-04-03T09:28:40;98818.28;;;10.98
24201;BMP280;2801;50.972;7.856;2023-04-03T09:31:30;98811.00;;;10.85
24201;BMP280;2801;50.972;7.856;2023-04-03T09:34:05;98805.06;;;10.69
24201;BMP280;2801;50.972;7.856;2023-04-03T09:39:22;98822.19;;;10.55
24201;BMP280;2801;50.972;7.856;2023-04-03T09:42:02;98817.22;;;10.43
24201;BMP280;2801;50.972;7.856;2023-04-03T09:44:38;98808.97;;;10.40
24201;BMP280;2801;50.972;7.856;2023-04-03T09:47:38;98814.78;;;10.47
24201;BMP280;2801;50.972;7.856;2023-04-03T09:50:23;98805.00;;;10.37
24201;BMP280;2801;50.972;7.856;2023-04-03T09:52:51;98797.81;;;10.51
24201;BMP280;2801;50.972;7.856;2023-04-03T09:55:26;98797.94;;;10.60
24201;BMP280;2801;50.972;7.856;2023-04-03T09:57:59;98797.78;;;10.88
24201;BMP280;2801;50.972;7.856;2023-04-03T10:00:34;98802.66;;;10.86
24201;BMP280;2801;50.972;7.856;2023-04-03T10:03:03;98806.38;;;10.53
24201;BMP280;2801;50.972;7.856;2023-04-03T10:05:38;98795.28;;;10.41
24201;BMP280;2801;50.972;7.856;2023-04-03T10:10:37;98787.13;;;10.09
24201;BMP280;2801;50.972;7.856;2023-04-03T10:13:13;98789.91;;;9.99
24201;BMP280;2801;50.972;7.856;2023-04-03T10:16:11;98783.69;;;10.27
24201;BMP280;2801;50.972;7.856;2023-04-03T10:19:00;98784.94;;;10.35
24201;BMP280;2801;50.972;7.856;2023-04-03T10:21:45;98786.56;;;10.68
24201;BMP280;2801;50.972;7.856;2023-04-03T10:24:22;98777.66;;;10.72
24201;BMP280;2801;50.972;7.856;2023-04-03T10:27:11;98790.72;;;10.60
24201;BMP280;2801;50.972;7.856;2023-04-03T10:36:06;98765.75;;;11.10
24201;BMP280;2801;50.972;7.856;2023-04-03T10:45:18;98775.06;;;10.99
24201;BMP280;2801;50.972;7.856;2023-04-03T10:48:14;98761.28;;;10.74
24201;BMP280;2801;50.972;7.856;2023-04-03T10:50:43;98759.31;;;10.79
24201;BMP280;2801;50.972;7.856;2023-04-03T10:53:31;98765.63;;;11.02
24201;BMP280;2801;50.972;7.856;2023-04-03T10:58:40;98759.41;;;10.56
24201;BMP280;2801;50.972;7.856;2023-04-03T11:01:16;98758.91;;;10.17
24201;BMP280;2801;50.972;7.856;2023-04-03T11:03:51;98752.09;;;10.01
24201;BMP280;2801;50.972;7.856;2023-04-03T11:06:23;98748.41;;;9.97
24201;BMP280;2801;50.972;7.856;2023-04-03T11:09:05;98744.66;;;9.98
24201;BMP280;2801;50.972;7.856;2023-04-03T11:11:39;98746.59;;;9.92
24201;BMP280;2801;50.972;7.856;2023-04-03T11:14:36;98750.53;;;9.76
24201;BMP280;2801;50.972;7.856;2023-04-03T11:22:43;98750.00;;;9.56
24201;BMP280;2801;50.972;7.856;2023-04-03T11:27:53;98737.75;;;9.50
24201;BMP280;2801;50.972;7.856;2023-04-03T11:33:27;98747.03;;;9.34
24201;BMP280;2801;50.972;7.856;2023-04-03T11:36:00;98740.53;;;9.11
24201;BMP280;2801;50.972;7.856;2023-04-03T11:38:46;98730.66;;;8.83
24201;BMP280;2801;50.972;7.856;2023-04-03T11:41:15;98735.94;;;8.88
24201;BMP280;2801;50.972;7.856;2023-04-03T11:44:04;98738.41;;;8.85
24201;BMP280;2801;50.972;7.856;2023-04-03T11:46:57;98729.84;;;8.83
24201;BMP280;2801;50.972;7.856;2023-04-03T11:50:19;98733.84;;;8.85
24201;BMP280;2801;50.972;7.856;2023-04-03T11:53:27;98730.19;;;8.76
24201;BMP280;2801;50.972;7.856;2023-04-03T11:55:59;98722.38;;;8.80
24201;BMP280;2801;50.972;7.856;2023-04-03T11:58:36;98728.22;;;8.87
24201;BMP280;2801;50.972;7.856;2023-04-03T12:01:07;98722.84;;;8.87
24201;BMP280;2801;50.972;7.856;2023-04-03T12:04:02;98716.47;;;8.83
24201;BMP280;2801;50.972;7.856;2023-04-03T12:09:31;98706.25;;;8.61
24201;BMP280;2801;50.972;7.856;2023-04-03T12:12:07;98717.50;;;8.58
24201;BMP280;2801;50.972;7.856;2023-04-03T12:14:47;98706.66;;;8.73
24201;BMP280;2801;50.972;7.856;2023-04-03T12:17:27;98704.38;;;8.90
24201;BMP280;2801;50.972;7.856;2023-04-03T12:19:56;98698.97;;;8.95
24201;BMP280;2801;50.972;7.856;2023-04-03T12:22:23;98701.19;;;8.88
24201;BMP280;2801;50.972;7.856;2023-04-03T12:24:53;98703.63;;;8.85
24201;BMP280;2801;50.972;7.856;2023-04-03T12:27:25;98708.78;;;8.76
24201;BMP280;2801;50.972;7.856;2023-04-03T12:32:50;98689.53;;;8.74
24201;BMP280;2801;50.972;7.856;2023-04-03T12:35:51;98688.97;;;8.82
24201;BMP280;2801;50.972;7.856;2023-04-03T12:41:50;98686.34;;;9.01
24201;BMP280;2801;50.972;7.856;2023-04-03T12:44:45;98698.97;;;8.95
24201;BMP280;2801;50.972;7.856;2023-04-03T12:47:30;98690.25;;;8.85
24201;BMP280;2801;50.972;7.856;2023-04-03T12:50:01;98691.66;;;8.77
24201;BMP280;2801;50.972;7.856;2023-04-03T12:52:40;98690.25;;;8.85
24201;BMP280;2801;50.972;7.856;2023-04-03T12:55:19;98682.81;;;8.82
24201;BMP280;2801;50.972;7.856;2023-04-03T12:57:47;98671.25;;;8.86
24201;BMP280;2801;50.972;7.856;2023-04-03T13:00:29;98677.13;;;8.88
24201;BMP280;2801;50.972;7.856;2023-04-03T13:03:01;98668.72;;;9.00
24201;BMP280;2801;50.972;7.856;2023-04-03T13:05:31;98653.63;;;9.09
24201;BMP280;2801;50.972;7.856;2023-04-03T13:08:09;98654.19;;;9.06
24201;BMP280;2801;50.972;7.856;2023-04-03T13:11:09;98654.91;;;9.16
24201;BMP280;2801;50.972;7.856;2023-04-03T13:13:37;98659.78;;;9.09
24201;BMP280;2801;50.972;7.856;2023-04-03T13:16:11;98653.28;;;9.15
24201;BMP280;2801;50.972;7.856;2023-04-03T13:18:38;98660.91;;;9.27
24201;BMP280;2801;50.972;7.856;2023-04-03T13:21:19;98655.28;;;9.28
24201;BMP280;2801;50.972;7.856;2023-04-03T13:23:52;98662.25;;;9.48
24201;BMP280;2801;50.972;7.856;2023-04-03T13:26:33;98655.09;;;9.43
24201;BMP280;2801;50.972;7.856;2023-04-03T13:29:07;98660.94;;;9.45
24201;BMP280;2801;50.972;7.856;2023-04-03T13:31:43;98656.03;;;9.34
24201;BMP280;2801;50.972;7.856;2023-04-03T13:34:17;98655.41;;;9.18
24201;BMP280;2801;50.972;7.856;2023-04-03T13:36:56;98650.97;;;9.32
24201;BMP280;2801;50.972;7.856;2023-04-03T13:39:29;98649.56;;;9.58
24201;BMP280;2801;50.972;7.856;2023-04-03T13:42:01;98641.16;;;9.83
24201;BMP280;2801;50.972;7.856;2023-04-03T13:44:36;98640.81;;;9.90
24201;BMP280;2801;50.972;7.856;2023-04-03T13:47:18;98637.50;;;9.98
24201;BMP280;2801;50.972;7.856;2023-04-03T13:52:55;98622.50;;;9.78
24201;BMP280;2801;50.972;7.856;2023-04-03T13:55:32;98639.81;;;9.86
24201;BMP280;2801;50.972;7.856;2023-04-03T13:58:20;98629.78;;;9.91
24201;BMP280;2801;50.972;7.856;2023-04-03T14:01:00;98622.47;;;9.97
24201;BMP280;2801;50.972;7.856;2023-04-03T14:03:43;98626.75;;;9.79
24201;BMP280;2801;50.972;7.856;2023-04-03T14:06:15;98619.28;;;9.76
24201;BMP280;2801;50.972;7.856;2023-04-03T14:08:45;98617.50;;;9.90
24201;BMP280;2801;50.972;7.856;2023-04-03T14:11:17;98619.81;;;9.97
24201;BMP280;2801;50.972;7.856;2023-04-03T14:13:46;98609.84;;;9.84
24201;BMP280;2801;50.972;7.856;2023-04-03T14:16:22;98608.59;;;9.58
24201;BMP280;2801;50.972;7.856;2023-04-03T14:18:50;98630.66;;;9.50
24201;BMP280;2801;50.972;7.856;2023-04-03T14:21:19;98613.06;;;9.44
24201;BMP280;2801;50.972;7.856;2023-04-03T14:23:48;98609.06;;;9.41
24201;BMP280;2801;50.972;7.856;2023-04-03T14:26:22;98605.25;;;9.47
24201;BMP280;2801;50.972;7.856;2023-04-03T14:28:54;98606.28;;;9.51
24201;BMP280;2801;50.972;7.856;2023-04-03T14:31:22;98610.81;;;9.51
24201;BMP280;2801;50.972;7.856;2023-04-03T14:33:50;98600.28;;;9.59
24201;BMP280;2801;50.972;7.856;2023-04-03T14:36:25;98609.41;;;9.58
24201;BMP280;2801;50.972;7.856;2023-04-03T14:38:54;98606.00;;;9.53
24201;BMP280;2801;50.972;7.856;2023-04-03T14:41:25;98597.97;;;9.53
24201;BMP280;2801;50.972;7.856;2023-04-03T14:43:53;98605.72;;;9.54
24201;BMP280;2801;50.972;7.856;2023-04-03T14:46:32;98605.25;;;9.47
24201;BMP280;2801;50.972;7.856;2023-04-03T14:49:24;98596.25;;;9.38
24201;BMP280;2801;50.972;7.856;2023-04-03T14:51:52;98605.22;;;9.29
24201;BMP280;2801;50.972;7.856;2023-04-03T14:54:22;98598.00;;;9.29
24201;BMP280;2801;50.972;7.856;2023-04-03T14:56:55;98603.06;;;9.31
24201;BMP280;2801;50.972;7.856;2023-04-03T14:59:24;98600.75;;;9.43
24201;BMP280;2801;50.972;7.856;2023-04-03T15:01:51;98596.34;;;9.33
24201;BMP280;2801;50.972;7.856;2023-04-03T15:04:20;98590.50;;;9.50
24201;BMP280;2801;50.972;7.856;2023-04-03T15:06:48;98588.19;;;9.62
24201;BMP280;2801;50.972;7.856;2023-04-03T15:09:26;98575.75;;;9.71
24201;BMP280;2801;50.972;7.856;2023-04-03T15:11:55;98575.31;;;9.82
24201;BMP280;2801;50.972;7.856;2023-04-03T15:14:22;98578.91;;;9.91
24201;BMP280;2801;50.972;7.856;2023-04-03T15:17:17;98574.56;;;9.77
24201;BMP280;2801;50.972;7.856;2023-04-03T15:19:44;98575.88;;;9.79
24201;BMP280;2801;50.972;7.856;2023-04-03T15:22:18;98570.81;;;9.78
24201;BMP280;2801;50.972;7.856;2023-04-03T15:24:46;98578.28;;;9.62
24201;BMP280;2801;50.972;7.856;2023-04-03T15:27:14;98570.25;;;9.62
24201;BMP280;2801;50.972;7.856;2023-04-03T15:29:43;98571.84;;;9.63
24201;BMP280;2801;50.972;7.856;2023-04-03T15:32:11;98581.16;;;9.47
24201;BMP280;2801;50.972;7.856;2023-04-03T15:34:39;98579.91;;;9.40
24201;BMP280;2801;50.972;7.856;2023-04-03T15:37:06;98585.63;;;9.33
24201;BMP280;2801;50.972;7.856;2023-04-03T15:39:33;98574.50;;;9.45
24201;BMP280;2801;50.972;7.856;2023-04-03T15:42:00;98566.69;;;9.30
24201;BMP280;2801;50.972;7.856;2023-04-03T15:44:34;98582.06;;;9.19